Latest Coastal Weather Observations for Norah Head

IDN60701

Issued at 3:51 pm EST Sunday 20 August 2017 (issued every 10 minutes, with the page automatically refreshed every 10 minutes)

About coastal observations | Map of coastal stations | Coastal observations for NSW | Marine services | Other Formats
Station Details ID: 061366 Name: NORAH HEAD AWS Lat: -33.28 Lon: 151.58 Height: 18.8 m
Data from the previous 72 hours. | See also: Recent months at Norah Head
Date/Time
EST
Temp
°C
Wind Pressure Rain since
9am
mm
Weather Cloud Vis
km
Sea
Height
m
Swell
Dir  Spd
kts
Gust
kts
hPa Trend Height
m
Period
s
Dir
20/03:30pm 12.7 SW 7 11 1021.4 - 0.0 - - - - - - -
20/03:00pm 13.7 SSW 10 15 1021.4 - 0.0 - - - - - - -
20/02:30pm 14.1 S 17 26 1021.2 - 0.0 - - - - - - -
20/02:00pm 14.1 SSW 15 20 1021.6 - 0.0 - - - - - - -
20/01:30pm 13.8 SSW 17 23 1021.5 - 0.0 - - - - - - -
20/01:00pm 14.8 SSW 17 22 1021.8 - 0.0 - - - - - - -
20/12:30pm 13.8 SSW 17 23 1021.9 - 0.0 - - - - - - -
20/12:00pm 14.6 SSW 15 21 1022.0 - 0.0 - - - - - - -
20/11:30am 14.0 SSW 12 19 1022.8 - 0.0 - - - - - - -
20/11:00am 13.6 SSW 13 18 1023.2 - 0.0 - - - - - - -
20/10:30am 12.7 SSW 14 22 1023.7 - 0.0 - - - - - - -
20/10:00am 12.6 SW 11 17 1023.7 - 0.0 - - - - - - -
20/09:30am 12.1 SW 9 13 1023.7 - 0.0 - - - - - - -
20/09:00am 11.5 SW 7 13 1023.8 - 1.2 - - - - - - -
20/08:30am 10.6 WSW 8 13 1023.6 - 1.2 - - - - - - -
20/08:00am 9.7 SW 8 13 1023.3 - 1.2 - - - - - - -
20/07:30am 9.0 WSW 7 17 1022.9 - 1.2 - - - - - - -
20/07:00am 8.2 WSW 7 13 1022.7 - 1.2 - - - - - - -
20/06:30am 8.0 WSW 8 13 1022.5 - 1.2 - - - - - - -
20/06:00am 8.1 WSW 9 15 1022.3 - 1.2 - - - - - - -
20/05:30am 8.3 WSW 8 14 1022.0 - 1.2 - - - - - - -
20/05:00am 8.3 WSW 8 14 1021.6 - 1.2 - - - - - - -
20/04:30am 8.4 WSW 8 13 1021.3 - 1.2 - - - - - - -
20/04:00am 8.7 WSW 9 13 1021.1 - 1.2 - - - - - - -
20/03:30am 9.0 WSW 9 15 1021.0 - 1.2 - - - - - - -
20/03:00am 9.1 WSW 7 13 1020.9 - 1.2 - - - - - - -
20/02:30am 9.6 WSW 10 16 1021.0 - 1.2 - - - - - - -
20/02:00am 10.2 SW 10 17 1021.0 - 1.2 - - - - - - -
20/01:30am 10.6 SW 11 19 1021.0 - 1.2 - - - - - - -
20/01:00am 11.0 SW 12 20 1021.0 - 1.2 - - - - - - -
20/12:30am 11.5 SW 13 20 1020.9 - 1.2 - - - - - - -
20/12:00am 10.8 WSW 8 13 1020.9 - 1.2 - - - - - - -
 
Date/Time
EST
Temp
°C
Wind Pressure Rain since
9am
mm
Weather Cloud Vis
km
Sea
Height
m
Swell
Dir  Spd
kts
Gust
kts
hPa Trend Height
m
Period
s
Dir
19/11:30pm 11.1 WSW 9 14 1021.0 - 1.2 - - - - - - -
19/11:00pm 12.4 SSW 10 19 1020.8 - 1.2 - - - - - - -
19/10:43pm 11.7 SSW 18 31 1021.0 - 1.2 - - - - - - -
19/10:30pm 12.3 S 23 34 1020.4 - 1.2 - - - - - - -
19/10:05pm 13.4 SSW 23 33 1020.5 - 1.0 - - - - - - -
19/10:00pm 13.3 SSW 24 33 1020.4 - 1.0 - - - - - - -
19/09:46pm 13.2 SSW 18 31 1020.4 - 1.0 - - - - - - -
19/09:43pm 12.9 SSW 15 29 1020.5 - 1.0 - - - - - - -
19/09:30pm 11.5 SW 17 30 1020.9 - 1.0 - - - - - - -
19/09:23pm 10.9 SW 16 27 1020.9 - 1.0 - - - - - - -
19/09:12pm 11.3 SSW 26 42 1020.9 - 1.0 - - - - - - -
19/09:08pm 12.7 SSW 26 42 1020.2 - 1.0 - - - - - - -
19/09:04pm 12.1 SW 21 37 1020.2 - 1.0 - - - - - - -
19/09:00pm 11.2 SW 19 31 1020.7 - 0.8 Rain - - - - - -
19/08:59pm 10.9 SW 20 31 1020.8 - 0.8 - - - - - - -
19/08:58pm 10.5 SW 20 30 1020.8 - 0.8 - - - - - - -
19/08:30pm 13.3 SSW 23 33 1020.0 - 0.2 - - - - - - -
19/08:00pm 13.8 S 29 45 1019.3 - 0.0 - - - - - - -
19/07:37pm 13.9 S 27 37 1019.3 - 0.0 - - - - - - -
19/07:30pm 13.8 SSW 28 37 1019.3 - 0.0 - - - - - - -
19/07:00pm 14.1 SSW 25 37 1019.3 - 0.0 - - - - - - -
19/06:48pm 14.0 SSW 26 36 1019.0 - 0.0 - - - - - - -
19/06:30pm 14.1 SSW 25 35 1019.0 - 0.0 - - - - - - -
19/06:00pm 14.0 SSW 26 37 1018.6 - 0.0 - - - - - - -
19/05:55pm 13.9 SSW 26 37 1018.7 - 0.0 - - - - - - -
19/05:30pm 13.9 SSW 25 33 1018.3 - 0.0 - - - - - - -
19/05:00pm 13.8 SSW 30 43 1017.8 - 0.0 - - - - - - -
19/04:32pm 14.2 SSW 26 36 1017.5 - 0.0 - - - - - - -
19/04:30pm 14.1 SSW 26 35 1017.5 - 0.0 - - - - - - -
19/04:06pm 14.4 SSW 26 36 1017.2 - 0.0 - - - - - - -
19/04:00pm 14.4 SSW 27 36 1017.2 - 0.0 - - - - - - -
19/03:30pm 14.3 SSW 29 39 1016.9 - 0.0 - - - - - - -
19/03:23pm 14.4 SSW 28 38 1016.8 - 0.0 - - - - - - -
19/03:00pm 14.4 SSW 25 33 1016.7 - 0.0 - - - - - - -
19/02:30pm 14.3 SSW 29 38 1016.2 - 0.0 - - - - - - -
19/02:16pm 14.6 SSW 24 34 1016.3 - 0.0 - - - - - - -
19/02:00pm 14.4 SSW 23 30 1016.3 - 0.0 - - - - - - -
19/01:30pm 14.3 SSW 23 31 1016.1 - 0.0 - - - - - - -
19/01:08pm 14.4 SSW 18 29 1016.1 - 0.0 - - - - - - -
19/01:00pm 14.6 SSW 18 26 1016.2 - 0.0 - - - - - - -
19/12:30pm 14.2 SSW 17 24 1016.3 - 0.0 - - - - - - -
19/12:00pm 13.8 SSW 15 22 1016.5 - 0.0 - - - - - - -
19/11:30am 13.4 SSW 14 22 1016.7 - 0.0 - - - - - - -
19/11:00am 13.4 SSW 18 27 1016.7 - 0.0 - - - - - - -
19/10:40am 13.1 SSW 15 25 1016.8 - 0.0 - - - - - - -
19/10:30am 13.0 SSW 18 25 1016.8 - 0.0 - - - - - - -
19/10:00am 12.5 SW 14 23 1016.7 - 0.0 - - - - - - -
19/09:30am 12.4 SW 10 21 1016.6 - 0.0 - - - - - - -
19/09:00am 11.8 SW 13 24 1016.3 - 0.0 - - - - - - -
19/08:30am 11.1 WSW 9 17 1016.2 - 0.0 - - - - - - -
19/08:00am 10.4 W 7 14 1015.8 - 0.0 - - - - - - -
19/07:30am 9.6 W 6 14 1015.5 - 0.0 - - - - - - -
19/07:00am 9.0 W 6 12 1015.1 - 0.0 - - - - - - -
19/06:30am 8.6 W 6 11 1014.8 - 0.0 - - - - - - -
19/06:00am 8.6 W 6 10 1014.4 - 0.0 - - - - - - -
19/05:30am 8.8 W 5 12 1014.0 - 0.0 - - - - - - -
19/05:00am 9.1 W 7 13 1013.8 - 0.0 - - - - - - -
19/04:30am 9.2 WSW 8 12 1013.6 - 0.0 - - - - - - -
19/04:00am 9.3 WSW 7 11 1013.1 - 0.0 - - - - - - -
19/03:30am 9.2 WSW 4 7 1012.9 - 0.0 - - - - - - -
19/03:00am 9.9 WSW 6 13 1012.8 - 0.0 - - - - - - -
19/02:30am 10.0 WSW 7 13 1012.6 - 0.0 - - - - - - -
19/02:00am 10.0 WSW 6 12 1012.8 - 0.0 - - - - - - -
19/01:30am 10.5 W 7 14 1012.6 - 0.0 - - - - - - -
19/01:00am 10.9 WSW 9 17 1012.7 - 0.0 - - - - - - -
19/12:30am 11.4 WSW 12 25 1012.5 - 0.0 - - - - - - -
19/12:00am 11.3 W 8 14 1012.0 - 0.0 - - - - - - -
 
Date/Time
EST
Temp
°C
Wind Pressure Rain since
9am
mm
Weather Cloud Vis
km
Sea
Height
m
Swell
Dir  Spd
kts
Gust
kts
hPa Trend Height
m
Period
s
Dir
18/11:30pm 11.6 W 9 16 1011.9 - 0.0 - - - - - - -
18/11:00pm 11.6 W 8 15 1012.0 - 0.0 - - - - - - -
18/10:30pm 11.9 W 9 15 1012.0 - 0.0 - - - - - - -
18/10:00pm 11.0 WNW 5 8 1012.0 - 0.0 - - - - - - -
18/09:30pm 11.1 WNW 6 11 1012.1 - 0.0 - - - - - - -
18/09:00pm 11.2 W 6 12 1012.1 - 0.0 - - - - - - -
18/08:30pm 11.4 W 7 14 1012.3 - 0.0 - - - - - - -
18/08:00pm 11.6 W 7 14 1012.1 - 0.0 - - - - - - -
18/07:30pm 11.7 W 7 12 1012.1 - 0.0 - - - - - - -
18/07:00pm 12.0 W 9 16 1011.9 - 0.0 - - - - - - -
18/06:30pm 12.2 W 9 17 1011.7 - 0.0 - - - - - - -
18/06:00pm 12.6 W 10 19 1011.2 - 0.0 - - - - - - -
18/05:30pm 13.8 W 10 22 1010.6 - 0.0 - - - - - - -
18/05:00pm 14.5 W 10 22 1009.9 - 0.0 - - - - - - -
18/04:30pm 15.0 W 11 23 1009.0 - 0.0 - - - - - - -
18/04:00pm 15.7 W 15 34 1008.2 - 0.0 - - - - - - -
18/03:30pm 16.1 W 13 28 1007.6 - 0.0 - - - - - - -
18/03:00pm 16.6 WNW 11 22 1007.1 - 0.0 - - - - - - -
18/02:30pm 16.8 W 11 22 1007.3 - 0.0 - - - - - - -
18/02:16pm 16.6 WNW 15 30 1007.1 - 0.0 - - - - - - -
18/02:00pm 16.9 WNW 12 25 1006.8 - 0.0 - - - - - - -
18/01:40pm 17.0 W 15 33 1006.9 - 0.0 - - - - - - -
18/01:30pm 17.1 WNW 13 27 1007.0 - 0.0 - - - - - - -
18/01:00pm 17.3 WNW 13 29 1007.1 - 0.0 - - - - - - -
18/12:30pm 16.8 W 13 25 1007.3 - 0.0 - - - - - - -
18/12:00pm 16.8 W 12 22 1007.6 - 0.0 - - - - - - -
18/11:30am 16.5 W 10 23 1008.1 - 0.0 - - - - - - -
18/11:00am 16.1 WNW 12 25 1008.6 - 0.0 - - - - - - -
18/10:30am 16.1 WNW 9 16 1008.8 - 0.0 - - - - - - -
18/10:00am 15.8 W 10 20 1009.3 - 0.0 - - - - - - -
18/09:30am 15.6 WNW 8 18 1009.1 - 0.0 - - - - - - -
18/09:00am 14.8 WNW 9 19 1009.5 - 0.0 - - - - - - -
18/08:30am 14.5 WNW 8 17 1009.7 - 0.0 - - - - - - -
18/08:00am 14.0 WNW 7 14 1009.6 - 0.0 - - - - - - -
18/07:30am 13.4 WNW 6 12 1009.6 - 0.0 - - - - - - -
18/07:00am 12.9 W 6 15 1009.7 - 0.0 - - - - - - -
18/06:30am 13.1 W 7 15 1009.5 - 0.0 - - - - - - -
18/06:00am 13.7 W 9 19 1009.1 - 0.0 - - - - - - -
18/05:30am 14.6 W 9 19 1008.9 - 0.0 - - - - - - -
18/05:00am 14.0 W 7 11 1008.1 - 0.0 - - - - - - -
18/04:30am 13.9 WSW 5 8 1007.9 - 0.0 - - - - - - -
18/04:00am 13.9 WNW 4 6 1007.6 - 0.0 - - - - - - -
18/03:30am 14.0 WNW 3 5 1007.4 - 0.0 - - - - - - -
18/03:00am 14.4 WNW 3 5 1007.2 - 0.0 - - - - - - -
18/02:30am 15.0 WNW 4 9 1007.5 - 0.0 - - - - - - -
18/02:00am 14.9 NW 5 10 1007.5 - 0.0 - - - - - - -
18/01:30am 13.8 WNW 2 4 1007.8 - 0.0 - - - - - - -
18/01:00am 13.6 NW 3 5 1008.1 - 0.0 - - - - - - -
18/12:30am 13.5 NW 3 4 1008.3 - 0.0 - - - - - - -
18/12:00am 13.2 NW 3 5 1008.4 - 0.0 - - - - - - -
 
Date/Time
EST
Temp
°C
Wind Pressure Rain since
9am
mm
Weather Cloud Vis
km
Sea
Height
m
Swell
Dir  Spd
kts
Gust
kts
hPa Trend Height
m
Period
s
Dir
17/11:30pm 13.4 NW 3 6 1008.4 - 0.0 - - - - - - -
17/11:00pm 14.1 NW 3 5 1008.3 - 0.0 - - - - - - -
17/10:30pm 13.9 NW 3 5 1008.5 - 0.0 - - - - - - -
17/10:00pm 13.9 NW 4 5 1008.5 - 0.0 - - - - - - -
17/09:30pm 14.8 NW 3 4 1008.6 - 0.0 - - - - - - -
17/09:00pm 15.4 WNW 3 5 1008.6 - 0.0 - - - - - - -
17/08:30pm 16.3 WNW 3 5 1008.6 - 0.0 - - - - - - -
17/08:00pm 16.9 WNW 4 8 1008.5 - 0.0 - - - - - - -
17/07:30pm 17.4 WNW 3 7 1008.2 - 0.0 - - - - - - -
17/07:00pm 18.1 NW 4 11 1007.7 - 0.0 - - - - - - -
17/06:30pm 18.0 NW 4 8 1007.2 - 0.0 - - - - - - -
17/06:00pm 19.0 NW 5 10 1006.9 - 0.0 - - - - - - -
17/05:30pm 19.6 NW 6 12 1006.4 - 0.0 - - - - - - -
17/05:00pm 20.2 WNW 6 16 1005.9 - 0.0 - - - - - - -
17/04:30pm 20.9 WNW 6 11 1005.7 - 0.0 - - - - - - -
17/04:00pm 21.7 WNW 8 13 1005.4 - 0.0 - - - - - - -

Other Formats:

Comma delimited format used in spreadsheet applications
http://www.bom.gov.au/fwo/IDN60701/IDN60701.95770.axf

JavaScript Object Notation format (JSON) in row-major order
http://www.bom.gov.au/fwo/IDN60701/IDN60701.95770.json